Time,TemperatureF,DewpointF,PressureIn,WindDirection,WindDirectionDegrees,WindSpeedMPH,WindSpeedGustMPH,Humidity,HourlyPrecipIn,Conditions,Clouds,dailyrainin,SolarRadiationWatts/m^2,SoftwareType,DateUTC
2013-07-09 00:00:00,71.0,70.0,-100.00,NW,318,0.0,1.0,97,0.00,,,0.04,0.000000,,2013-07-09 04:00:00,
2013-07-09 00:02:00,70.0,69.0,-100.00,NNW,334,0.0,2.0,98,0.00,,,0.04,0.000000,,2013-07-09 04:02:00,
2013-07-09 00:34:00,70.0,69.0,-100.00,NNW,334,0.0,2.0,98,0.00,,,0.04,0.000000,,2013-07-09 04:34:00,
2013-07-09 00:43:00,70.0,69.0,-100.00,NNW,334,0.0,2.0,98,0.00,,,0.04,0.000000,,2013-07-09 04:43:00,
2013-07-09 00:53:00,70.0,69.0,-100.00,NNW,334,0.0,2.0,98,0.00,,,0.04,0.000000,,2013-07-09 04:53:00,
2013-07-09 01:34:00,70.0,69.0,-100.00,South,173,1.0,1.0,98,0.00,,,0.04,0.000000,,2013-07-09 05:34:00,
2013-07-09 01:42:00,70.0,69.0,-100.00,South,173,1.0,1.0,98,0.00,,,0.04,0.000000,,2013-07-09 05:42:00,
2013-07-09 01:52:00,70.0,69.0,-100.00,South,173,1.0,1.0,98,0.00,,,0.04,0.000000,,2013-07-09 05:52:00,
2013-07-09 02:01:00,70.0,69.0,-100.00,South,173,1.0,1.0,98,0.00,,,0.04,0.000000,,2013-07-09 06:01:00,
2013-07-09 02:02:00,70.0,70.0,-100.00,SSE,152,0.0,2.0,99,0.00,,,0.04,0.000000,,2013-07-09 06:02:00,
2013-07-09 02:34:00,70.0,70.0,-100.00,SSE,152,0.0,2.0,99,0.00,,,0.04,0.000000,,2013-07-09 06:34:00,
2013-07-09 02:43:00,70.0,70.0,-100.00,SSE,152,0.0,2.0,99,0.00,,,0.04,0.000000,,2013-07-09 06:43:00,
2013-07-09 02:53:00,70.0,70.0,-100.00,SSE,152,0.0,2.0,99,0.00,,,0.04,0.000000,,2013-07-09 06:53:00,
2013-07-09 03:34:00,69.0,69.0,-100.00,North,9,1.0,2.0,99,0.00,,,0.04,0.000000,,2013-07-09 07:34:00,
2013-07-09 03:43:00,69.0,69.0,-100.00,North,9,1.0,2.0,99,0.00,,,0.04,0.000000,,2013-07-09 07:43:00,
2013-07-09 03:53:00,69.0,69.0,-100.00,North,9,1.0,2.0,99,0.00,,,0.04,0.000000,,2013-07-09 07:53:00,
2013-07-09 04:01:00,69.0,69.0,-100.00,North,9,1.0,2.0,99,0.00,,,0.04,0.000000,,2013-07-09 08:01:00,
2013-07-09 04:02:00,69.0,69.0,-100.00,South,173,1.0,3.0,99,0.00,,,0.04,0.000000,,2013-07-09 08:02:00,
2013-07-09 04:33:00,69.0,69.0,-100.00,South,173,1.0,3.0,99,0.00,,,0.04,0.000000,,2013-07-09 08:33:00,
2013-07-09 04:43:00,69.0,69.0,-100.00,South,173,1.0,3.0,99,0.00,,,0.04,0.000000,,2013-07-09 08:43:00,
2013-07-09 04:52:00,69.0,69.0,-100.00,South,173,1.0,3.0,99,0.00,,,0.04,0.000000,,2013-07-09 08:52:00,
2013-07-09 05:34:00,69.0,69.0,-100.00,SSE,165,0.0,2.0,99,0.00,,,0.04,0.000000,,2013-07-09 09:34:00,
2013-07-09 05:42:00,69.0,69.0,-100.00,SSE,165,0.0,2.0,99,0.00,,,0.04,0.000000,,2013-07-09 09:42:00,
2013-07-09 05:53:00,69.0,69.0,-100.00,SSE,165,0.0,2.0,99,0.00,,,0.04,0.000000,,2013-07-09 09:53:00,
2013-07-09 06:01:00,69.0,69.0,-100.00,SSE,165,0.0,2.0,99,0.00,,,0.04,0.000000,,2013-07-09 10:01:00,
2013-07-09 06:34:00,69.0,69.0,-100.00,NW,321,0.0,0.0,99,0.00,,,0.04,0.000000,,2013-07-09 10:34:00,
2013-07-09 06:42:00,69.0,69.0,-100.00,NW,321,0.0,0.0,99,0.00,,,0.04,0.000000,,2013-07-09 10:42:00,
2013-07-09 06:52:00,69.0,69.0,-100.00,NW,321,0.0,0.0,99,0.00,,,0.04,0.000000,,2013-07-09 10:52:00,
2013-07-09 07:01:00,69.0,69.0,-100.00,NW,321,0.0,0.0,99,0.00,,,0.04,0.000000,,2013-07-09 11:01:00,
2013-07-09 07:02:00,69.0,69.0,-100.00,NNW,339,2.0,3.0,99,0.00,,,0.04,3.000000,,2013-07-09 11:02:00,
2013-07-09 07:34:00,69.0,69.0,-100.00,NNW,339,2.0,3.0,99,0.00,,,0.04,3.000000,,2013-07-09 11:34:00,
2013-07-09 07:42:00,69.0,69.0,-100.00,NNW,339,2.0,3.0,99,0.00,,,0.04,3.000000,,2013-07-09 11:42:00,
2013-07-09 07:53:00,69.0,69.0,-100.00,NNW,339,2.0,3.0,99,0.00,,,0.04,3.000000,,2013-07-09 11:53:00,
2013-07-09 08:33:00,71.0,71.0,-100.00,North,10,0.0,2.0,99,0.00,,,0.04,55.000000,,2013-07-09 12:33:00,
2013-07-09 08:43:00,71.0,71.0,-100.00,North,10,0.0,2.0,99,0.00,,,0.04,55.000000,,2013-07-09 12:43:00,
2013-07-09 08:53:00,71.0,71.0,-100.00,North,10,0.0,2.0,99,0.00,,,0.04,55.000000,,2013-07-09 12:53:00,
2013-07-09 09:01:00,71.0,71.0,-100.00,North,10,0.0,2.0,99,0.00,,,0.04,55.000000,,2013-07-09 13:01:00,
2013-07-09 09:33:00,73.0,73.0,-100.00,SSW,192,1.0,2.0,99,0.00,,,0.04,114.000000,,2013-07-09 13:33:00,
2013-07-09 09:43:00,73.0,73.0,-100.00,SSW,192,1.0,2.0,99,0.00,,,0.04,114.000000,,2013-07-09 13:43:00,
2013-07-09 09:53:00,73.0,73.0,-100.00,SSW,192,1.0,2.0,99,0.00,,,0.04,114.000000,,2013-07-09 13:53:00,
2013-07-09 10:01:00,73.0,73.0,-100.00,SSW,192,1.0,2.0,99,0.00,,,0.04,114.000000,,2013-07-09 14:01:00,
2013-07-09 10:02:00,77.0,72.0,-100.00,NNW,336,2.0,4.0,86,0.00,,,0.04,245.000000,,2013-07-09 14:02:00,
2013-07-09 10:34:00,77.0,72.0,-100.00,NNW,336,2.0,4.0,86,0.00,,,0.04,245.000000,,2013-07-09 14:34:00,
2013-07-09 10:43:00,77.0,72.0,-100.00,NNW,336,2.0,4.0,86,0.00,,,0.04,245.000000,,2013-07-09 14:43:00,
2013-07-09 10:53:00,77.0,72.0,-100.00,NNW,336,2.0,4.0,86,0.00,,,0.04,245.000000,,2013-07-09 14:53:00,
2013-07-09 11:02:00,79.0,74.0,-100.00,SW,222,2.0,4.0,84,0.00,,,0.04,370.000000,,2013-07-09 15:02:00,
2013-07-09 11:34:00,79.0,74.0,-100.00,SW,222,2.0,4.0,84,0.00,,,0.04,370.000000,,2013-07-09 15:34:00,
2013-07-09 11:43:00,79.0,74.0,-100.00,SW,222,2.0,4.0,84,0.00,,,0.04,370.000000,,2013-07-09 15:43:00,
2013-07-09 11:52:00,79.0,74.0,-100.00,SW,222,2.0,4.0,84,0.00,,,0.04,370.000000,,2013-07-09 15:52:00,
2013-07-09 12:02:00,86.0,73.0,-100.00,WNW,287,3.0,7.0,66,0.00,,,0.04,721.000000,,2013-07-09 16:02:00,
2013-07-09 12:43:00,86.0,73.0,-100.00,WNW,287,3.0,7.0,66,0.00,,,0.04,721.000000,,2013-07-09 16:43:00,
2013-07-09 12:53:00,86.0,73.0,-100.00,WNW,287,3.0,7.0,66,0.00,,,0.04,721.000000,,2013-07-09 16:53:00,
2013-07-09 13:02:00,88.0,75.0,-100.00,NW,320,3.0,6.0,65,0.00,,,0.04,901.000000,,2013-07-09 17:02:00,
2013-07-09 13:35:00,88.0,75.0,-100.00,NW,320,3.0,6.0,65,0.00,,,0.04,901.000000,,2013-07-09 17:35:00,
2013-07-09 13:45:00,88.0,75.0,-100.00,NW,320,3.0,6.0,65,0.00,,,0.04,901.000000,,2013-07-09 17:45:00,
2013-07-09 13:53:00,88.0,75.0,-100.00,NW,320,3.0,6.0,65,0.00,,,0.04,901.000000,,2013-07-09 17:53:00,
2013-07-09 14:32:00,88.0,76.0,-100.00,WNW,282,3.0,7.0,67,0.00,,,-99.99,838.000000,,2013-07-09 18:32:00,
2013-07-09 14:43:00,88.0,76.0,-100.00,WNW,282,3.0,7.0,67,0.00,,,-99.99,838.000000,,2013-07-09 18:43:00,
2013-07-09 14:52:00,88.0,76.0,-100.00,WNW,282,3.0,7.0,67,0.00,,,-99.99,838.000000,,2013-07-09 18:52:00,
2013-07-09 15:01:00,88.0,76.0,-100.00,WNW,282,3.0,7.0,67,0.00,,,-99.99,838.000000,,2013-07-09 19:01:00,
2013-07-09 15:02:00,89.0,72.0,-100.00,West,275,2.0,5.0,58,0.00,,,-99.99,823.000000,,2013-07-09 19:02:00,
2013-07-09 15:33:00,89.0,72.0,-100.00,West,275,2.0,5.0,58,0.00,,,-99.99,823.000000,,2013-07-09 19:33:00,
2013-07-09 15:42:00,89.0,72.0,-100.00,West,275,2.0,5.0,58,0.00,,,-99.99,823.000000,,2013-07-09 19:42:00,
2013-07-09 15:52:00,89.0,72.0,-100.00,West,275,2.0,5.0,58,0.00,,,-99.99,823.000000,,2013-07-09 19:52:00,
2013-07-09 16:32:00,85.0,75.0,-100.00,NNW,344,0.0,5.0,72,0.00,,,0.04,608.000000,,2013-07-09 20:32:00,
2013-07-09 16:43:00,85.0,75.0,-100.00,NNW,344,0.0,5.0,72,0.00,,,0.04,608.000000,,2013-07-09 20:43:00,
2013-07-09 17:52:00,81.0,75.0,-100.00,NW,319,2.0,6.0,82,0.00,,,0.04,203.000000,,2013-07-09 21:52:00,
2013-07-09 18:01:00,81.0,75.0,-100.00,NW,319,2.0,6.0,82,0.00,,,0.04,203.000000,,2013-07-09 22:01:00,
2013-07-09 18:02:00,81.0,73.0,-100.00,NNW,344,2.0,7.0,78,0.00,,,0.04,266.000000,,2013-07-09 22:02:00,
2013-07-09 18:33:00,81.0,73.0,-100.00,NNW,344,2.0,7.0,78,0.00,,,0.04,266.000000,,2013-07-09 22:33:00,
2013-07-09 18:42:00,81.0,73.0,-100.00,NNW,344,2.0,7.0,78,0.00,,,0.04,266.000000,,2013-07-09 22:42:00,
2013-07-09 18:53:00,81.0,73.0,-100.00,NNW,344,2.0,7.0,78,0.00,,,0.04,266.000000,,2013-07-09 22:53:00,
2013-07-09 19:33:00,76.0,71.0,-100.00,SSW,193,1.0,4.0,84,0.00,,,0.04,70.000000,,2013-07-09 23:33:00,
2013-07-09 19:43:00,76.0,71.0,-100.00,SSW,193,1.0,4.0,84,0.00,,,0.04,70.000000,,2013-07-09 23:43:00,
2013-07-09 19:53:00,76.0,71.0,-100.00,SSW,193,1.0,4.0,84,0.00,,,0.04,70.000000,,2013-07-09 23:53:00,
2013-07-09 20:01:00,76.0,71.0,-100.00,SSW,193,1.0,4.0,84,0.00,,,0.04,70.000000,,2013-07-10 00:01:00,
2013-07-09 20:33:00,74.0,71.0,-100.00,South,182,2.0,4.0,91,0.00,,,0.04,15.000000,,2013-07-10 00:33:00,
2013-07-09 20:43:00,74.0,71.0,-100.00,South,182,2.0,4.0,91,0.00,,,0.04,15.000000,,2013-07-10 00:43:00,
2013-07-09 20:52:00,74.0,71.0,-100.00,South,182,2.0,4.0,91,0.00,,,0.04,15.000000,,2013-07-10 00:52:00,
2013-07-09 21:01:00,74.0,71.0,-100.00,South,182,2.0,4.0,91,0.00,,,0.04,15.000000,,2013-07-10 01:01:00,
2013-07-09 21:02:00,73.0,71.0,-100.00,North,0,2.0,4.0,95,0.00,,,0.04,7.000000,,2013-07-10 01:02:00,
2013-07-09 21:33:00,73.0,71.0,-100.00,North,0,2.0,4.0,95,0.00,,,0.04,7.000000,,2013-07-10 01:33:00,
2013-07-09 21:43:00,73.0,71.0,-100.00,North,0,2.0,4.0,95,0.00,,,0.04,7.000000,,2013-07-10 01:43:00,
2013-07-09 21:53:00,73.0,71.0,-100.00,North,0,2.0,4.0,95,0.00,,,0.04,7.000000,,2013-07-10 01:53:00,
2013-07-09 22:34:00,73.0,72.0,-100.00,NNW,339,0.0,2.0,97,0.02,,,0.02,0.000000,,2013-07-10 02:34:00,
2013-07-09 22:43:00,73.0,72.0,-100.00,NNW,339,0.0,2.0,97,0.02,,,0.02,0.000000,,2013-07-10 02:43:00,
2013-07-09 22:53:00,73.0,72.0,-100.00,NNW,339,0.0,2.0,97,0.02,,,0.02,0.000000,,2013-07-10 02:53:00,
2013-07-09 23:01:00,73.0,72.0,-100.00,NNW,339,0.0,2.0,97,0.02,,,0.02,0.000000,,2013-07-10 03:01:00,
2013-07-09 23:32:00,72.0,71.0,-100.00,SSE,160,1.0,1.0,98,0.00,,,0.02,0.000000,,2013-07-10 03:32:00,
2013-07-09 23:43:00,72.0,71.0,-100.00,SSE,160,1.0,1.0,98,0.00,,,0.02,0.000000,,2013-07-10 03:43:00,
2013-07-09 23:52:00,72.0,71.0,-100.00,SSE,160,1.0,1.0,98,0.00,,,0.02,0.000000,,2013-07-10 03:52:00,